Terminal Aerodrome Forecast
Issued by NWS Shreveport, LA

Home | Current Version | Previous Version | Text Only | Print | Product List | Glossary On
Versions: 1 2 3 4 5 6 7 8 9 10 11 12 13 14 15 16 17 18 19 20 21 22 23
275
FTUS44 KSHV 211146
TAFGGG
TAF
KGGG 211146Z 2112/2212 34008KT P6SM VCTS SCT008 OVC020CB
      TEMPO 2112/2116 3SM TSRA BR OVC006CB
     FM211600 36012G20KT 5SM TSRA OVC010CB
     FM220500 02008KT P6SM VCTS OVC015CB=

USA.gov is the U.S. government's official web portal to all federal, state and local government web resources and services.